createdAt,value
2023-05-17T00:00:58.478Z,26.71
2023-05-17T00:03:25.275Z,26.08
2023-05-17T00:05:52.648Z,26.14
2023-05-17T00:08:19.314Z,26.50
2023-05-17T00:10:46.040Z,26.44
2023-05-17T00:13:12.894Z,26.46
2023-05-17T00:15:39.604Z,25.53
2023-05-17T00:18:06.312Z,25.52
2023-05-17T00:20:34.114Z,26.48
2023-05-17T00:23:00.736Z,26.77
2023-05-17T00:25:27.739Z,27.15
2023-05-17T00:27:55.090Z,27.26
2023-05-17T00:30:21.873Z,26.67
2023-05-17T00:32:49.142Z,27.02
2023-05-17T00:35:15.985Z,26.76
2023-05-17T00:37:47.078Z,26.26
2023-05-17T00:40:15.034Z,26.81
2023-05-17T00:42:42.059Z,26.22
2023-05-17T00:45:10.167Z,26.48
2023-05-17T00:47:37.476Z,26.41
2023-05-17T00:50:05.647Z,26.23
2023-05-17T00:52:32.571Z,26.56
2023-05-17T00:54:59.286Z,25.95
2023-05-17T00:57:26.397Z,26.07
2023-05-17T00:59:54.809Z,26.35
2023-05-17T01:02:21.893Z,26.09
2023-05-17T01:04:49.472Z,26.53
2023-05-17T01:07:17.375Z,26.12
2023-05-17T01:09:47.114Z,25.97
2023-05-17T01:12:13.973Z,26.15
2023-05-17T01:14:53.750Z,26.78
2023-05-17T01:17:25.032Z,26.93
2023-05-17T01:20:05.948Z,25.88
2023-05-17T01:22:39.641Z,25.54
2023-05-17T01:25:17.273Z,25.84
2023-05-17T01:27:44.970Z,25.94
2023-05-17T01:30:12.970Z,26.28
2023-05-17T01:32:41.361Z,26.04
2023-05-17T01:35:10.122Z,25.46
2023-05-17T01:37:38.230Z,25.88
2023-05-17T01:40:06.691Z,25.56
2023-05-17T01:42:33.513Z,25.58
2023-05-17T01:45:00.658Z,26.19
2023-05-17T01:47:36.222Z,26.23
2023-05-17T01:50:03.203Z,26.29
2023-05-17T01:52:35.503Z,25.69
2023-05-17T01:55:05.573Z,26.07
2023-05-17T01:57:35.555Z,26.28
2023-05-17T02:00:05.995Z,26.07
2023-05-17T02:02:42.265Z,26.23
2023-05-17T02:05:09.430Z,26.60
2023-05-17T02:07:41.092Z,26.88
2023-05-17T02:10:08.833Z,26.74
2023-05-17T02:12:36.380Z,26.47
2023-05-17T02:15:04.350Z,26.43
2023-05-17T02:17:32.367Z,26.55
2023-05-17T02:19:59.094Z,26.45
2023-05-17T02:22:25.677Z,26.31
2023-05-17T02:24:52.379Z,26.51
2023-05-17T02:27:19.283Z,25.95
2023-05-17T02:29:46.088Z,26.36
2023-05-17T02:32:12.989Z,27.48
2023-05-17T02:34:39.637Z,27.08
2023-05-17T02:37:06.495Z,27.09
2023-05-17T02:39:33.235Z,26.99
2023-05-17T02:42:00.025Z,26.96
2023-05-17T02:44:26.742Z,27.00
2023-05-17T02:46:53.505Z,27.86
2023-05-17T02:49:20.161Z,27.48
2023-05-17T02:51:47.290Z,27.31
2023-05-17T02:54:14.023Z,26.65
2023-05-17T02:56:40.853Z,26.45
2023-05-17T02:59:07.792Z,26.32
2023-05-17T03:01:36.080Z,26.44
2023-05-17T03:04:03.718Z,26.20
2023-05-17T03:06:31.199Z,26.19
2023-05-17T03:08:58.664Z,26.39
2023-05-17T03:11:26.251Z,26.72
2023-05-17T03:13:55.004Z,27.08
2023-05-17T03:16:25.882Z,26.77
2023-05-17T03:18:52.996Z,26.64
2023-05-17T03:21:20.889Z,26.91
2023-05-17T03:23:48.325Z,26.76
2023-05-17T03:26:15.668Z,26.61
2023-05-17T03:28:47.117Z,26.49
2023-05-17T03:31:14.296Z,26.35
2023-05-17T03:33:41.695Z,26.23
2023-05-17T03:36:08.768Z,26.49
2023-05-17T03:38:35.649Z,26.19
2023-05-17T03:41:03.102Z,26.45
2023-05-17T03:43:30.199Z,26.07
2023-05-17T03:45:58.180Z,26.24
2023-05-17T03:48:25.058Z,26.10
2023-05-17T03:50:52.693Z,26.31
2023-05-17T03:53:19.295Z,26.86
2023-05-17T03:55:46.050Z,26.95
2023-05-17T03:58:13.059Z,26.74
2023-05-17T04:00:40.847Z,26.95
2023-05-17T04:03:10.216Z,27.08
2023-05-17T04:05:37.620Z,27.41
2023-05-17T04:08:04.753Z,27.60
2023-05-17T04:10:31.701Z,27.41
2023-05-17T04:12:58.358Z,27.25
2023-05-17T04:15:25.868Z,27.06
2023-05-17T04:17:54.928Z,27.26
2023-05-17T04:20:21.682Z,27.83
2023-05-17T04:22:48.717Z,27.07
2023-05-17T04:25:16.521Z,26.58
2023-05-17T04:27:45.960Z,26.31
2023-05-17T04:30:14.194Z,26.67
2023-05-17T04:32:43.274Z,26.39
2023-05-17T04:35:11.296Z,26.03
2023-05-17T04:37:39.768Z,26.71
2023-05-17T04:40:14.235Z,26.85
2023-05-17T04:42:42.099Z,26.71
2023-05-17T04:45:09.776Z,26.75
2023-05-17T04:47:37.176Z,26.27
2023-05-17T04:50:04.609Z,26.56
2023-05-17T04:54:32.548Z,30.94
2023-05-17T04:57:00.702Z,29.59
2023-05-17T04:59:50.354Z,28.74
2023-05-17T05:02:17.624Z,28.04
2023-05-17T05:04:44.756Z,27.93
2023-05-17T05:07:12.270Z,27.43
2023-05-17T05:09:39.581Z,27.44
2023-05-17T05:12:07.035Z,26.99
2023-05-17T05:14:34.938Z,26.56
2023-05-17T05:17:02.096Z,26.96
2023-05-17T05:19:29.691Z,26.32
2023-05-17T05:21:57.789Z,26.50
2023-05-17T05:24:24.537Z,26.66
2023-05-17T05:26:51.477Z,26.21
2023-05-17T05:29:19.233Z,26.74
2023-05-17T05:31:46.450Z,26.68
2023-05-17T05:34:14.021Z,26.35
2023-05-17T05:36:41.504Z,26.15
2023-05-17T05:39:09.936Z,26.30
2023-05-17T05:41:37.600Z,26.21
2023-05-17T05:44:04.620Z,25.57
2023-05-17T05:46:31.420Z,25.91
2023-05-17T05:48:58.331Z,25.77
2023-05-17T05:51:25.795Z,25.58
2023-05-17T05:53:52.740Z,25.50
2023-05-17T05:56:22.178Z,25.16
2023-05-17T05:58:50.571Z,24.69
2023-05-17T06:01:17.798Z,25.09
2023-05-17T06:03:44.598Z,25.05
2023-05-17T06:06:11.520Z,25.22
2023-05-17T06:08:38.377Z,24.91
2023-05-17T06:11:05.230Z,24.77
2023-05-17T06:13:32.000Z,25.01
2023-05-17T06:15:59.730Z,24.72
2023-05-17T06:18:26.778Z,24.07
2023-05-17T06:20:53.625Z,23.61
2023-05-17T06:23:20.546Z,23.51
2023-05-17T06:25:47.330Z,23.34
2023-05-17T06:28:14.094Z,23.14
2023-05-17T06:30:41.178Z,22.99
2023-05-17T06:33:08.717Z,22.95
2023-05-17T06:35:47.889Z,22.96
2023-05-17T06:38:23.415Z,23.28
2023-05-17T06:40:57.481Z,23.30
2023-05-17T06:43:25.634Z,22.85
2023-05-17T06:45:52.853Z,22.83
2023-05-17T06:48:19.847Z,22.96
2023-05-17T06:50:46.887Z,23.29
2023-05-17T06:53:13.884Z,22.78
2023-05-17T06:55:41.542Z,21.37
2023-05-17T06:58:08.377Z,21.16
2023-05-17T07:00:39.142Z,20.52
2023-05-17T07:03:06.069Z,20.29
2023-05-17T07:05:33.312Z,19.96
2023-05-17T07:08:00.761Z,19.27
2023-05-17T07:10:27.685Z,18.90
2023-05-17T07:12:54.529Z,18.61
2023-05-17T07:15:21.390Z,18.03
2023-05-17T07:17:48.271Z,17.98
2023-05-17T07:20:15.559Z,18.07
2023-05-17T07:22:42.500Z,17.85
2023-05-17T07:25:10.478Z,17.95
2023-05-17T07:27:37.312Z,17.51
2023-05-17T07:30:04.503Z,17.17
2023-05-17T07:32:31.360Z,17.13
2023-05-17T07:34:58.276Z,17.03
2023-05-17T07:37:25.075Z,16.64
2023-05-17T07:39:52.097Z,16.70
2023-05-17T07:42:18.907Z,16.77
2023-05-17T07:44:49.087Z,16.86
2023-05-17T07:47:17.749Z,17.06
2023-05-17T07:49:45.015Z,17.05
2023-05-17T07:52:11.888Z,17.25
2023-05-17T07:54:38.819Z,17.29
2023-05-17T07:57:05.709Z,17.02
2023-05-17T07:59:32.471Z,17.06
2023-05-17T08:01:59.255Z,16.79
2023-05-17T08:04:26.287Z,16.78
2023-05-17T08:06:55.561Z,16.85
2023-05-17T08:09:22.369Z,16.70
2023-05-17T08:11:49.249Z,17.17
2023-05-17T08:14:16.439Z,17.24
2023-05-17T08:16:43.973Z,17.46
2023-05-17T08:19:13.076Z,17.23
2023-05-17T08:21:41.072Z,17.49
2023-05-17T08:24:08.355Z,17.19
2023-05-17T08:26:35.178Z,17.40
2023-05-17T08:29:02.701Z,17.76
2023-05-17T08:31:29.952Z,18.02
2023-05-17T08:33:56.885Z,17.81
2023-05-17T08:36:23.834Z,17.69
2023-05-17T08:38:51.905Z,17.57
2023-05-17T08:41:19.570Z,17.48
2023-05-17T08:43:47.307Z,17.46
2023-05-17T08:46:14.085Z,17.61
2023-05-17T08:48:42.106Z,17.39
2023-05-17T08:51:12.262Z,17.21
2023-05-17T08:53:39.067Z,17.28
2023-05-17T08:56:07.132Z,17.43
2023-05-17T08:58:48.056Z,17.46
2023-05-17T09:01:18.997Z,17.30
2023-05-17T09:03:54.749Z,17.30
2023-05-17T09:06:22.293Z,17.23
2023-05-17T09:08:53.296Z,17.79
2023-05-17T09:11:27.966Z,17.48
2023-05-17T09:14:01.524Z,17.14
2023-05-17T09:16:29.668Z,17.14
2023-05-17T09:18:57.526Z,17.09
2023-05-17T09:21:25.148Z,17.01
2023-05-17T09:24:04.710Z,16.72
2023-05-17T09:26:39.858Z,16.49
2023-05-17T09:29:14.224Z,16.59
2023-05-17T09:31:41.486Z,16.78
2023-05-17T09:34:08.772Z,17.26
2023-05-17T09:36:37.805Z,16.96
2023-05-17T09:39:06.344Z,16.30
2023-05-17T09:41:34.101Z,16.18
2023-05-17T09:44:01.599Z,16.31
2023-05-17T09:46:29.117Z,16.29
2023-05-17T09:48:56.931Z,15.96
2023-05-17T09:51:33.950Z,16.41
2023-05-17T09:54:00.810Z,16.31
2023-05-17T09:56:30.964Z,15.80
2023-05-17T09:59:01.571Z,15.93
2023-05-17T10:01:29.360Z,16.07
2023-05-17T10:03:59.658Z,15.99
2023-05-17T10:06:38.975Z,15.59
2023-05-17T10:09:16.036Z,15.53
2023-05-17T10:11:46.848Z,15.47
2023-05-17T10:14:22.989Z,15.42
2023-05-17T10:16:50.987Z,15.52
2023-05-17T10:19:20.252Z,15.31
2023-05-17T10:21:51.060Z,15.37
2023-05-17T10:24:17.905Z,15.85
2023-05-17T10:26:44.670Z,16.16
2023-05-17T10:29:11.751Z,16.65
2023-05-17T10:31:38.585Z,16.51
2023-05-17T10:34:06.521Z,16.44
2023-05-17T10:36:33.881Z,16.51
2023-05-17T10:39:00.889Z,16.59
2023-05-17T10:41:30.503Z,16.30
2023-05-17T10:43:57.892Z,16.34
2023-05-17T10:46:24.971Z,16.32
2023-05-17T10:48:52.656Z,16.65
2023-05-17T10:51:37.795Z,16.92
2023-05-17T10:54:05.414Z,16.40
2023-05-17T10:56:32.858Z,16.49
2023-05-17T10:59:24.306Z,16.23
2023-05-17T11:02:04.805Z,16.29
2023-05-17T11:04:38.793Z,16.05
2023-05-17T11:07:29.311Z,16.12
2023-05-17T11:10:06.336Z,16.02
2023-05-17T11:12:43.219Z,15.99
2023-05-17T11:15:14.294Z,16.65
2023-05-17T11:17:44.631Z,16.79
2023-05-17T11:20:16.454Z,17.06
2023-05-17T11:23:16.502Z,16.69
2023-05-17T11:25:43.407Z,16.13
2023-05-17T11:28:18.433Z,15.97
2023-05-17T11:30:51.488Z,15.85
2023-05-17T11:33:33.294Z,16.23
2023-05-17T11:36:05.590Z,15.77
2023-05-17T11:38:33.134Z,15.53
2023-05-17T11:41:26.592Z,15.81
2023-05-17T11:43:53.674Z,15.37
2023-05-17T11:46:22.622Z,15.50
2023-05-17T11:48:53.941Z,15.29
2023-05-17T11:51:23.875Z,15.30
2023-05-17T11:53:55.336Z,15.33
2023-05-17T11:56:41.885Z,15.45
2023-05-17T11:59:11.292Z,14.95
2023-05-17T12:01:51.133Z,14.68
2023-05-17T12:04:27.709Z,14.57
2023-05-17T12:06:54.873Z,14.49
2023-05-17T12:09:26.514Z,14.40
2023-05-17T12:11:53.503Z,14.30
2023-05-17T12:14:23.206Z,14.16
2023-05-17T12:16:54.094Z,14.05
2023-05-17T12:19:22.290Z,13.96
2023-05-17T12:21:50.005Z,14.00
2023-05-17T12:24:17.055Z,14.73
2023-05-17T12:26:45.146Z,14.98
2023-05-17T12:29:12.234Z,14.73
2023-05-17T12:31:44.165Z,14.36
2023-05-17T12:34:12.879Z,14.18
2023-05-17T12:36:40.581Z,14.25
2023-05-17T12:39:09.942Z,14.76
2023-05-17T12:41:37.266Z,14.72
2023-05-17T12:44:14.609Z,14.50
2023-05-17T12:46:42.350Z,14.24
2023-05-17T12:49:09.426Z,13.79
2023-05-17T12:51:46.208Z,13.78
2023-05-17T12:54:16.309Z,13.76
2023-05-17T12:56:46.618Z,13.87
2023-05-17T12:59:17.316Z,13.99
2023-05-17T13:01:45.918Z,13.57
2023-05-17T13:04:13.501Z,13.12
2023-05-17T13:06:43.598Z,13.13
2023-05-17T13:09:10.507Z,13.52
2023-05-17T13:11:41.328Z,13.56
2023-05-17T13:14:09.079Z,13.62
2023-05-17T13:16:39.602Z,13.30
2023-05-17T13:19:14.548Z,13.61
2023-05-17T13:21:41.555Z,14.45
2023-05-17T13:24:09.511Z,14.82
2023-05-17T13:26:36.330Z,14.92
2023-05-17T13:29:03.310Z,15.07
2023-05-17T13:31:30.090Z,14.96
2023-05-17T13:33:57.119Z,15.09
2023-05-17T13:36:24.227Z,15.54
2023-05-17T13:38:51.160Z,14.90
2023-05-17T13:41:18.054Z,14.52
2023-05-17T13:43:44.906Z,14.61
2023-05-17T13:46:11.779Z,14.68
2023-05-17T13:48:40.463Z,14.92
2023-05-17T13:51:10.129Z,14.90
2023-05-17T13:53:38.816Z,14.95
2023-05-17T13:56:06.105Z,14.84
2023-05-17T13:58:33.506Z,14.42
2023-05-17T14:01:00.756Z,14.38
2023-05-17T14:03:27.948Z,14.47
2023-05-17T14:05:54.938Z,14.45
2023-05-17T14:08:21.806Z,14.56
2023-05-17T14:10:48.658Z,14.99
2023-05-17T14:13:15.544Z,14.71
2023-05-17T14:15:42.343Z,14.62
2023-05-17T14:18:09.798Z,14.82
2023-05-17T14:20:36.653Z,14.61
2023-05-17T14:23:03.576Z,14.40
2023-05-17T14:25:30.441Z,14.71
2023-05-17T14:27:57.231Z,14.91
2023-05-17T14:30:24.168Z,14.56
2023-05-17T14:32:50.993Z,14.33
2023-05-17T14:35:17.825Z,14.46
2023-05-17T14:37:44.683Z,14.41
2023-05-17T14:40:15.067Z,14.16
2023-05-17T14:42:54.776Z,14.16
2023-05-17T14:45:25.068Z,13.97
2023-05-17T14:47:52.850Z,13.90
2023-05-17T14:50:19.732Z,13.84
2023-05-17T14:52:46.654Z,13.65
2023-05-17T14:55:16.404Z,13.66
2023-05-17T14:57:43.860Z,13.60
2023-05-17T15:00:11.500Z,13.35
2023-05-17T15:02:38.455Z,13.10
2023-05-17T15:05:06.287Z,13.11
2023-05-17T15:07:34.723Z,13.06
2023-05-17T15:10:04.329Z,13.11
2023-05-17T15:12:32.275Z,12.97
2023-05-17T15:14:59.119Z,12.99
2023-05-17T15:17:26.038Z,12.82
2023-05-17T15:19:54.040Z,12.69
2023-05-17T15:22:21.001Z,13.14
2023-05-17T15:24:47.828Z,13.15
2023-05-17T15:27:17.217Z,12.99
2023-05-17T15:29:44.225Z,13.11
2023-05-17T15:32:11.323Z,12.88
2023-05-17T15:34:38.134Z,13.04
2023-05-17T15:37:04.924Z,12.93
2023-05-17T15:39:32.123Z,13.04
2023-05-17T15:41:58.963Z,13.17
2023-05-17T15:44:25.837Z,13.07
2023-05-17T15:46:52.808Z,13.30
2023-05-17T15:49:19.737Z,13.21
2023-05-17T15:51:47.171Z,13.34
2023-05-17T15:54:17.283Z,13.66
2023-05-17T15:56:44.078Z,13.67
2023-05-17T15:59:10.894Z,14.08
2023-05-17T16:01:37.738Z,14.03
2023-05-17T16:04:04.723Z,13.87
2023-05-17T16:06:36.026Z,14.01
2023-05-17T16:09:03.135Z,13.53
2023-05-17T16:11:30.068Z,13.36
2023-05-17T16:13:57.296Z,13.42
2023-05-17T16:16:24.085Z,13.21
2023-05-17T16:18:51.146Z,13.64
2023-05-17T16:21:21.123Z,13.57
2023-05-17T16:23:48.026Z,13.69
2023-05-17T16:26:16.018Z,13.45
2023-05-17T16:28:42.880Z,13.81
2023-05-17T16:31:10.142Z,13.88
2023-05-17T16:33:37.161Z,13.69
2023-05-17T16:36:05.071Z,13.89
2023-05-17T16:38:31.897Z,14.30
2023-05-17T16:41:03.413Z,14.72
2023-05-17T16:43:30.961Z,14.88
2023-05-17T16:45:57.792Z,15.05
2023-05-17T16:48:24.733Z,15.65
2023-05-17T16:50:52.211Z,15.82
2023-05-17T16:53:18.965Z,16.42
2023-05-17T16:55:45.800Z,16.73
2023-05-17T16:58:13.191Z,17.08
2023-05-17T17:00:40.166Z,17.77
2023-05-17T17:03:09.478Z,17.62
2023-05-17T17:05:36.857Z,18.20
2023-05-17T17:08:03.699Z,18.37
2023-05-17T17:11:26.353Z,21.04
2023-05-17T17:13:53.627Z,19.69
2023-05-17T17:16:21.230Z,19.73
2023-05-17T17:18:49.733Z,19.89
2023-05-17T17:21:17.111Z,19.78
2023-05-17T17:23:44.549Z,20.02
2023-05-17T17:26:11.626Z,20.37
2023-05-17T17:28:38.624Z,20.40
2023-05-17T17:31:06.282Z,20.32
2023-05-17T17:33:33.294Z,20.24
2023-05-17T17:36:01.657Z,20.50
2023-05-17T17:38:28.520Z,20.28
2023-05-17T17:40:55.588Z,20.62
2023-05-17T17:43:22.472Z,20.47
2023-05-17T17:45:49.258Z,20.77
2023-05-17T17:48:18.287Z,20.56
2023-05-17T17:50:45.157Z,20.22
2023-05-17T17:53:11.953Z,20.52
2023-05-17T17:55:38.840Z,20.67
2023-05-17T17:58:05.611Z,20.56
2023-05-17T18:00:32.518Z,20.91
2023-05-17T18:02:59.509Z,20.72
2023-05-17T18:05:26.552Z,20.76
2023-05-17T18:07:53.315Z,20.87
2023-05-17T18:10:20.453Z,20.87
2023-05-17T18:12:47.919Z,20.69
2023-05-17T18:15:15.934Z,20.73
2023-05-17T18:17:42.821Z,20.76
2023-05-17T18:20:09.790Z,21.03
2023-05-17T18:22:36.577Z,21.11
2023-05-17T18:25:03.553Z,20.94
2023-05-17T18:27:31.436Z,21.12
2023-05-17T18:29:58.309Z,21.35
2023-05-17T18:32:25.475Z,21.45
2023-05-17T18:34:55.072Z,20.98
2023-05-17T18:37:21.987Z,20.96
2023-05-17T18:39:48.885Z,21.09
2023-05-17T18:42:17.080Z,20.83
2023-05-17T18:44:43.891Z,20.83
2023-05-17T18:47:12.103Z,20.63
2023-05-17T18:49:44.144Z,20.51
2023-05-17T18:52:12.090Z,20.70
2023-05-17T18:54:39.000Z,20.46
2023-05-17T18:57:05.996Z,20.53
2023-05-17T18:59:33.062Z,20.16
2023-05-17T19:02:00.584Z,20.06
2023-05-17T19:04:28.603Z,20.42
2023-05-17T19:06:56.721Z,20.59
2023-05-17T19:09:23.594Z,20.62
2023-05-17T19:11:50.511Z,20.37
2023-05-17T19:14:18.230Z,20.16
2023-05-17T19:16:45.539Z,20.27
2023-05-17T19:19:12.419Z,20.17
2023-05-17T19:21:39.548Z,20.53
2023-05-17T19:24:06.667Z,20.37
2023-05-17T19:26:33.587Z,20.32
2023-05-17T19:29:00.592Z,20.79
2023-05-17T19:31:27.719Z,20.93
2023-05-17T19:33:54.591Z,21.20
2023-05-17T19:36:21.482Z,21.15
2023-05-17T19:38:51.189Z,20.80
2023-05-17T19:41:21.421Z,21.05
2023-05-17T19:43:48.245Z,21.32
2023-05-17T19:46:15.074Z,21.85
2023-05-17T19:48:41.962Z,21.87
2023-05-17T19:51:08.947Z,21.99
2023-05-17T19:53:51.021Z,22.36
2023-05-17T19:56:21.713Z,22.73
2023-05-17T19:58:48.564Z,22.87
2023-05-17T20:01:15.483Z,23.17
2023-05-17T20:03:42.546Z,22.71
2023-05-17T20:06:14.920Z,22.94
2023-05-17T20:08:42.500Z,23.01
2023-05-17T20:11:09.346Z,23.12
2023-05-17T20:13:40.070Z,23.34
2023-05-17T20:16:12.692Z,23.25
2023-05-17T20:18:42.677Z,23.66
2023-05-17T20:21:11.273Z,23.70
2023-05-17T20:23:38.136Z,23.89
2023-05-17T20:26:05.014Z,24.03
2023-05-17T20:28:31.758Z,24.05
2023-05-17T20:30:58.755Z,23.69
2023-05-17T20:33:26.797Z,23.37
2023-05-17T20:35:53.872Z,23.86
2023-05-17T20:38:22.183Z,24.09
2023-05-17T20:40:51.643Z,23.34
2023-05-17T20:43:19.170Z,23.46
2023-05-17T20:45:46.132Z,23.62
2023-05-17T20:48:13.026Z,22.95
2023-05-17T20:50:41.436Z,22.70
2023-05-17T20:53:10.402Z,22.55
2023-05-17T20:55:37.243Z,22.43
2023-05-17T20:58:04.129Z,22.59
2023-05-17T21:00:31.886Z,22.71
2023-05-17T21:02:59.007Z,22.49
2023-05-17T21:05:25.959Z,23.00
2023-05-17T21:07:52.694Z,23.31
2023-05-17T21:10:19.457Z,23.32
2023-05-17T21:12:46.202Z,23.48
2023-05-17T21:15:18.537Z,23.32
2023-05-17T21:17:45.525Z,24.13
2023-05-17T21:20:13.504Z,24.49
2023-05-17T21:22:40.442Z,24.54
2023-05-17T21:25:08.227Z,24.99
2023-05-17T21:27:35.125Z,25.29
2023-05-17T21:30:01.863Z,25.85
2023-05-17T21:32:28.631Z,25.88
2023-05-17T21:34:55.417Z,25.81
2023-05-17T21:37:22.228Z,26.22
2023-05-17T21:39:48.974Z,26.39
2023-05-17T21:42:15.770Z,26.41
2023-05-17T21:44:42.547Z,26.30
2023-05-17T21:47:09.410Z,26.23
2023-05-17T21:49:36.236Z,26.20
2023-05-17T21:52:03.174Z,26.34
2023-05-17T21:54:30.118Z,26.59
2023-05-17T21:56:56.923Z,26.70
2023-05-17T21:59:25.228Z,27.14
2023-05-17T22:01:54.990Z,27.25
2023-05-17T22:04:22.015Z,27.33
2023-05-17T22:06:48.810Z,27.07
2023-05-17T22:09:15.640Z,27.95
2023-05-17T22:11:42.508Z,28.50
2023-05-17T22:14:09.369Z,28.30
2023-05-17T22:16:38.981Z,28.70
2023-05-17T22:19:05.955Z,28.69
2023-05-17T22:21:33.071Z,29.64
2023-05-17T22:23:59.881Z,29.27
2023-05-17T22:26:27.817Z,29.09
2023-05-17T22:28:55.753Z,29.21
2023-05-17T22:31:23.071Z,29.91
2023-05-17T22:33:52.358Z,30.17
2023-05-17T22:36:19.699Z,30.22
2023-05-17T22:38:46.770Z,29.19
2023-05-17T22:41:13.821Z,29.53
2023-05-17T22:43:40.637Z,30.15
2023-05-17T22:46:07.499Z,30.11
2023-05-17T22:48:37.499Z,30.70
2023-05-17T22:51:04.897Z,30.68
2023-05-17T22:53:31.941Z,30.56
2023-05-17T22:55:58.925Z,30.91
2023-05-17T22:58:26.124Z,31.08
2023-05-17T23:00:53.241Z,31.39
2023-05-17T23:03:20.473Z,31.12
2023-05-17T23:05:47.528Z,31.56
2023-05-17T23:08:15.671Z,31.17
2023-05-17T23:10:45.785Z,31.76
2023-05-17T23:13:12.988Z,31.88
2023-05-17T23:15:40.940Z,31.55
2023-05-17T23:18:08.153Z,31.73
2023-05-17T23:20:35.209Z,31.94
2023-05-17T23:23:02.261Z,32.27
2023-05-17T23:25:29.688Z,32.34
2023-05-17T23:27:58.733Z,32.15
2023-05-17T23:30:26.473Z,31.65
2023-05-17T23:32:55.290Z,31.80
2023-05-17T23:35:25.969Z,31.24
2023-05-17T23:37:52.787Z,31.79
2023-05-17T23:40:19.885Z,31.39
2023-05-17T23:42:46.622Z,31.06
2023-05-17T23:45:13.486Z,31.32
2023-05-17T23:47:41.071Z,31.52
2023-05-17T23:50:12.145Z,31.30
2023-05-17T23:52:39.595Z,31.86
2023-05-17T23:55:07.401Z,32.00
2023-05-17T23:57:35.304Z,31.91
